Suite Judy — WDG2470 — position and weather

sailwx.info

Track history (hours):
 
Tides and Currents Weather Stations Pressure Air Temp Water Temp Dewpoint Dewpoint Depression Visibility Wind Speed Wind Dir Waves Ship Positions

Suite Judy

Owner: Suite Judy LLC, Cobbs Creek, VA. More information available from US FCC via Universal Licensing System.

Last reported at 2018-Jul-18 11:32 UTC. Time now 2018-Jul-19 19:32 UTC.
Position N 32°46' W 079°53'.

Length 13 m; draft 1.6 m.

Type: Ship. MMSI: 367515970.

Date/timePositionNaut miles runAvg speedWind from/ knotsBaromVisibWave heightAir tempDewpointWater temp
2018-Jul-18 11:32N 32°46' W 079°53'0 9.2
2018-Jul-18 11:30N 32°46' W 079°53'2 0.1
2018-Jul-17 20:49N 32°47' W 079°55'0 0.0
2018-Jul-17 19:46N 32°47' W 079°55'0 0.0
2018-Jul-17 19:29N 32°47' W 079°55'2 3.2
2018-Jul-17 19:00N 32°46' W 079°57'4 7.6
2018-Jul-17 18:29N 32°46' W 080°01'56 2.0
2018-Jul-16 14:26N 32°09' W 080°51'3 6.9
2018-Jul-16 13:59N 32°07' W 080°54'3 6.2
2018-Jul-16 13:30N 32°05' W 080°56'3 6.8
2018-Jul-16 13:00N 32°04' W 081°00'3 5.2
2018-Jul-16 12:30N 32°03' W 081°03'3 6.0
2018-Jul-16 12:00N 31°60' W 081°01'2 0.2
2018-Jul-16 01:13N 31°59' W 081°03'0 0.0
2018-Jul-16 01:00N 31°59' W 081°03'1 1.7
2018-Jul-16 00:30N 31°58' W 081°03'3 5.8
2018-Jul-16 00:00N 31°55' W 081°05'  
Track history (hours):
 
Tides and Currents Weather Stations Pressure Air Temp Water Temp Dewpoint Dewpoint Depression Visibility Wind Speed Wind Dir Waves Ship Positions

Suite Judy

Owner: Suite Judy LLC, Cobbs Creek, VA. More information available from US FCC via Universal Licensing System.

Last reported at 2018-Jul-18 11:32 UTC. Time now 2018-Jul-19 19:32 UTC.
Position N 32°46' W 079°53'.

Length 13 m; draft 1.6 m.

Type: Ship. MMSI: 367515970.

Date/timePositionNaut miles runAvg speedWind from/ knotsBaromVisibWave heightAir tempDewpointWater temp
2018-Jul-18 11:32N 32°46' W 079°53'0 9.2
2018-Jul-18 11:30N 32°46' W 079°53'2 0.1
2018-Jul-17 20:49N 32°47' W 079°55'0 0.0
2018-Jul-17 19:46N 32°47' W 079°55'0 0.0
2018-Jul-17 19:29N 32°47' W 079°55'2 3.2
2018-Jul-17 19:00N 32°46' W 079°57'4 7.6
2018-Jul-17 18:29N 32°46' W 080°01'56 2.0
2018-Jul-16 14:26N 32°09' W 080°51'3 6.9
2018-Jul-16 13:59N 32°07' W 080°54'3 6.2
2018-Jul-16 13:30N 32°05' W 080°56'3 6.8
2018-Jul-16 13:00N 32°04' W 081°00'3 5.2
2018-Jul-16 12:30N 32°03' W 081°03'3 6.0
2018-Jul-16 12:00N 31°60' W 081°01'2 0.2
2018-Jul-16 01:13N 31°59' W 081°03'0 0.0
2018-Jul-16 01:00N 31°59' W 081°03'1 1.7
2018-Jul-16 00:30N 31°58' W 081°03'3 5.8
2018-Jul-16 00:00N 31°55' W 081°05'  

Dump ship's entire track history